sensor_id;sensor_type;location;lat;lon;timestamp;pressure;altitude;pressure_sealevel;temperature;humidity
11017;BME280;54687;50.800;6.772;2023-03-04T00:02:14;61164.19;;;-144.06;58.71
11017;BME280;54687;50.800;6.772;2023-03-04T00:04:41;61126.44;;;-144.06;58.66
11017;BME280;54687;50.800;6.772;2023-03-04T00:07:07;61151.59;;;-144.06;58.32
11017;BME280;54687;50.800;6.772;2023-03-04T00:09:34;61176.75;;;-144.06;58.69
11017;BME280;54687;50.800;6.772;2023-03-04T00:12:03;61155.81;;;-144.06;58.43
11017;BME280;54687;50.800;6.772;2023-03-04T00:14:32;61113.88;;;-144.06;59.09
11017;BME280;54687;50.800;6.772;2023-03-04T00:16:58;61107.59;;;-144.06;58.67
11017;BME280;54687;50.800;6.772;2023-03-04T00:19:25;61141.13;;;-144.06;58.90
11017;BME280;54687;50.800;6.772;2023-03-04T00:21:51;61160.00;;;-144.06;59.13
11017;BME280;54687;50.800;6.772;2023-03-04T00:24:18;61149.50;;;-144.06;59.06
11017;BME280;54687;50.800;6.772;2023-03-04T00:26:44;61139.03;;;-144.06;58.76
11017;BME280;54687;50.800;6.772;2023-03-04T00:29:12;61113.88;;;-144.06;59.36
11017;BME280;54687;50.800;6.772;2023-03-04T00:31:39;61118.06;;;-144.06;59.03
11017;BME280;54687;50.800;6.772;2023-03-04T00:34:06;61143.22;;;-144.06;59.34
11017;BME280;54687;50.800;6.772;2023-03-04T00:36:32;61160.00;;;-144.06;59.60
11017;BME280;54687;50.800;6.772;2023-03-04T00:38:59;61122.25;;;-144.06;59.03
11017;BME280;54687;50.800;6.772;2023-03-04T00:41:25;61151.59;;;-144.06;59.23
11017;BME280;54687;50.800;6.772;2023-03-04T00:43:52;61164.19;;;-144.06;59.25
11017;BME280;54687;50.800;6.772;2023-03-04T00:46:20;61139.03;;;-144.06;58.96
11017;BME280;54687;50.800;6.772;2023-03-04T00:48:46;61185.16;;;-144.06;59.25
11017;BME280;54687;50.800;6.772;2023-03-04T00:51:13;61149.50;;;-144.06;58.86
11017;BME280;54687;50.800;6.772;2023-03-04T00:53:42;61118.06;;;-144.06;59.01
11017;BME280;54687;50.800;6.772;2023-03-04T00:56:08;61139.03;;;-144.06;59.09
11017;BME280;54687;50.800;6.772;2023-03-04T00:58:35;61185.16;;;-144.06;58.91
11017;BME280;54687;50.800;6.772;2023-03-04T01:01:01;61143.22;;;-144.06;59.38
11017;BME280;54687;50.800;6.772;2023-03-04T01:03:29;61143.22;;;-144.06;59.46
11017;BME280;54687;50.800;6.772;2023-03-04T01:05:57;61084.53;;;-144.06;59.17
11017;BME280;54687;50.800;6.772;2023-03-04T01:08:23;61151.59;;;-144.06;59.25
11017;BME280;54687;50.800;6.772;2023-03-04T01:10:50;61143.22;;;-144.06;59.31
11017;BME280;54687;50.800;6.772;2023-03-04T01:13:17;61151.59;;;-144.06;59.35
11017;BME280;54687;50.800;6.772;2023-03-04T01:15:43;61164.19;;;-144.06;59.52
11017;BME280;54687;50.800;6.772;2023-03-04T01:18:10;61143.22;;;-144.06;59.14
11017;BME280;54687;50.800;6.772;2023-03-04T01:20:38;61172.56;;;-144.06;59.37
11017;BME280;54687;50.800;6.772;2023-03-04T01:23:05;61109.69;;;-144.06;59.32
11017;BME280;54687;50.800;6.772;2023-03-04T01:25:31;61153.69;;;-144.06;59.74
11017;BME280;54687;50.800;6.772;2023-03-04T01:27:58;61120.16;;;-144.06;59.56
11017;BME280;54687;50.800;6.772;2023-03-04T01:30:24;61193.53;;;-144.06;59.88
11017;BME280;54687;50.800;6.772;2023-03-04T01:32:51;61124.34;;;-144.06;59.28
11017;BME280;54687;50.800;6.772;2023-03-04T01:35:18;61126.44;;;-144.06;59.44
11017;BME280;54687;50.800;6.772;2023-03-04T01:37:45;61151.59;;;-144.06;59.68
11017;BME280;54687;50.800;6.772;2023-03-04T01:40:13;61130.66;;;-144.06;59.89
11017;BME280;54687;50.800;6.772;2023-03-04T01:42:39;61122.25;;;-144.06;60.07
11017;BME280;54687;50.800;6.772;2023-03-04T01:45:10;61147.41;;;-144.06;60.18
11017;BME280;54687;50.800;6.772;2023-03-04T01:47:38;61139.03;;;-144.06;60.17
11017;BME280;54687;50.800;6.772;2023-03-04T01:50:10;61128.53;;;-144.06;60.24
11017;BME280;54687;50.800;6.772;2023-03-04T01:52:42;61139.03;;;-144.06;59.75
11017;BME280;54687;50.800;6.772;2023-03-04T01:55:14;61130.66;;;-144.06;59.60
11017;BME280;54687;50.800;6.772;2023-03-04T01:57:41;61126.44;;;-144.06;59.93
11017;BME280;54687;50.800;6.772;2023-03-04T02:00:19;61143.22;;;-144.06;59.99
11017;BME280;54687;50.800;6.772;2023-03-04T02:02:46;61088.72;;;-144.06;60.04
11017;BME280;54687;50.800;6.772;2023-03-04T02:05:13;61130.66;;;-144.06;59.94
11017;BME280;54687;50.800;6.772;2023-03-04T02:07:41;61155.81;;;-144.06;59.74
11017;BME280;54687;50.800;6.772;2023-03-04T02:10:09;61122.25;;;-144.06;60.01
11017;BME280;54687;50.800;6.772;2023-03-04T02:12:38;61134.84;;;-144.06;59.63
11017;BME280;54687;50.800;6.772;2023-03-04T02:15:06;61143.22;;;-144.06;59.57
11017;BME280;54687;50.800;6.772;2023-03-04T02:17:33;61147.41;;;-144.06;59.65
11017;BME280;54687;50.800;6.772;2023-03-04T02:20:06;61134.84;;;-144.06;59.73
11017;BME280;54687;50.800;6.772;2023-03-04T02:22:39;61164.19;;;-144.06;59.82
11017;BME280;54687;50.800;6.772;2023-03-04T02:25:11;61153.69;;;-144.06;59.70
11017;BME280;54687;50.800;6.772;2023-03-04T02:27:40;61157.91;;;-144.06;59.69
11017;BME280;54687;50.800;6.772;2023-03-04T02:30:09;61199.81;;;-144.06;59.47
11017;BME280;54687;50.800;6.772;2023-03-04T02:32:36;61126.44;;;-144.06;59.65
11017;BME280;54687;50.800;6.772;2023-03-04T02:35:04;61143.22;;;-144.06;59.30
11017;BME280;54687;50.800;6.772;2023-03-04T02:37:31;61111.78;;;-144.06;59.49
11017;BME280;54687;50.800;6.772;2023-03-04T02:39:57;61122.25;;;-144.06;59.15
11017;BME280;54687;50.800;6.772;2023-03-04T02:42:24;61130.66;;;-144.06;59.01
11017;BME280;54687;50.800;6.772;2023-03-04T02:45:00;61141.13;;;-144.06;59.23
11017;BME280;54687;50.800;6.772;2023-03-04T02:47:27;61164.19;;;-144.06;59.18
11017;BME280;54687;50.800;6.772;2023-03-04T02:49:53;61103.38;;;-144.06;58.88
11017;BME280;54687;50.800;6.772;2023-03-04T02:52:22;61128.53;;;-144.06;59.34
11017;BME280;54687;50.800;6.772;2023-03-04T02:54:48;61157.91;;;-144.06;59.47
11017;BME280;54687;50.800;6.772;2023-03-04T02:57:15;61134.84;;;-144.06;58.84
11017;BME280;54687;50.800;6.772;2023-03-04T02:59:42;61111.78;;;-144.06;58.87
11017;BME280;54687;50.800;6.772;2023-03-04T03:02:10;61147.41;;;-144.06;58.64
11017;BME280;54687;50.800;6.772;2023-03-04T03:04:37;61147.41;;;-144.06;58.40
11017;BME280;54687;50.800;6.772;2023-03-04T03:07:04;61128.53;;;-144.06;58.35
11017;BME280;54687;50.800;6.772;2023-03-04T03:09:31;61151.59;;;-144.06;58.69
11017;BME280;54687;50.800;6.772;2023-03-04T03:11:58;61132.75;;;-144.06;58.25
11017;BME280;54687;50.800;6.772;2023-03-04T03:14:24;61130.66;;;-144.06;58.38
11017;BME280;54687;50.800;6.772;2023-03-04T03:16:51;61088.72;;;-144.06;58.53
11017;BME280;54687;50.800;6.772;2023-03-04T03:19:19;61145.31;;;-144.06;58.53
11017;BME280;54687;50.800;6.772;2023-03-04T03:21:45;61132.75;;;-144.06;58.16
11017;BME280;54687;50.800;6.772;2023-03-04T03:24:12;61185.16;;;-144.06;58.46
11017;BME280;54687;50.800;6.772;2023-03-04T03:26:38;61172.56;;;-144.06;58.37
11017;BME280;54687;50.800;6.772;2023-03-04T03:29:05;61134.84;;;-144.06;58.13
11017;BME280;54687;50.800;6.772;2023-03-04T03:31:31;61122.25;;;-144.06;58.45
11017;BME280;54687;50.800;6.772;2023-03-04T03:33:58;61122.25;;;-144.06;58.13
11017;BME280;54687;50.800;6.772;2023-03-04T03:36:26;61115.97;;;-144.06;58.47
11017;BME280;54687;50.800;6.772;2023-03-04T03:38:52;61160.00;;;-144.06;58.24
11017;BME280;54687;50.800;6.772;2023-03-04T03:41:19;61092.91;;;-144.06;58.49
11017;BME280;54687;50.800;6.772;2023-03-04T03:43:45;61134.84;;;-144.06;58.06
11017;BME280;54687;50.800;6.772;2023-03-04T03:46:12;61118.06;;;-144.06;58.13
11017;BME280;54687;50.800;6.772;2023-03-04T03:48:38;61143.22;;;-144.06;57.85
11017;BME280;54687;50.800;6.772;2023-03-04T03:51:05;61132.75;;;-144.06;58.00
11017;BME280;54687;50.800;6.772;2023-03-04T03:53:33;61113.88;;;-144.06;57.88
11017;BME280;54687;50.800;6.772;2023-03-04T03:55:59;61139.03;;;-144.06;58.57
11017;BME280;54687;50.800;6.772;2023-03-04T03:58:26;61128.53;;;-144.06;58.21
11017;BME280;54687;50.800;6.772;2023-03-04T04:00:53;61189.34;;;-144.06;58.25
11017;BME280;54687;50.800;6.772;2023-03-04T04:03:19;61136.94;;;-144.06;58.33
11017;BME280;54687;50.800;6.772;2023-03-04T04:05:46;61141.13;;;-144.06;57.91
11017;BME280;54687;50.800;6.772;2023-03-04T04:08:13;61155.81;;;-144.06;58.26
11017;BME280;54687;50.800;6.772;2023-03-04T04:10:42;61147.41;;;-144.06;58.20
11017;BME280;54687;50.800;6.772;2023-03-04T04:13:09;61141.13;;;-144.06;58.00
11017;BME280;54687;50.800;6.772;2023-03-04T04:15:35;61092.91;;;-144.06;58.18
11017;BME280;54687;50.800;6.772;2023-03-04T04:18:03;61141.13;;;-144.06;57.95
11017;BME280;54687;50.800;6.772;2023-03-04T04:20:29;61126.44;;;-144.06;57.77
11017;BME280;54687;50.800;6.772;2023-03-04T04:22:56;61126.44;;;-144.06;57.68
11017;BME280;54687;50.800;6.772;2023-03-04T04:25:22;61101.28;;;-144.06;58.13
11017;BME280;54687;50.800;6.772;2023-03-04T04:27:50;61126.44;;;-144.06;57.67
11017;BME280;54687;50.800;6.772;2023-03-04T04:30:17;61172.56;;;-144.06;57.83
11017;BME280;54687;50.800;6.772;2023-03-04T04:32:44;61128.53;;;-144.06;57.49
11017;BME280;54687;50.800;6.772;2023-03-04T04:35:10;61092.91;;;-144.06;57.82
11017;BME280;54687;50.800;6.772;2023-03-04T04:37:37;61143.22;;;-144.06;57.67
11017;BME280;54687;50.800;6.772;2023-03-04T04:40:04;61122.25;;;-144.06;57.93
11017;BME280;54687;50.800;6.772;2023-03-04T04:42:31;61143.22;;;-144.06;57.56
11017;BME280;54687;50.800;6.772;2023-03-04T04:44:59;61151.59;;;-144.06;57.34
11017;BME280;54687;50.800;6.772;2023-03-04T04:47:26;61136.94;;;-144.06;57.79
11017;BME280;54687;50.800;6.772;2023-03-04T04:49:53;61147.41;;;-144.06;57.96
11017;BME280;54687;50.800;6.772;2023-03-04T04:52:19;61157.91;;;-144.06;57.56
11017;BME280;54687;50.800;6.772;2023-03-04T04:54:46;61122.25;;;-144.06;57.68
11017;BME280;54687;50.800;6.772;2023-03-04T04:57:12;61134.84;;;-144.06;57.96
11017;BME280;54687;50.800;6.772;2023-03-04T04:59:39;61139.03;;;-144.06;57.51
11017;BME280;54687;50.800;6.772;2023-03-04T05:02:07;61109.69;;;-144.06;57.71
11017;BME280;54687;50.800;6.772;2023-03-04T05:04:34;61147.41;;;-144.06;57.82
11017;BME280;54687;50.800;6.772;2023-03-04T05:07:00;61145.31;;;-144.06;57.69
11017;BME280;54687;50.800;6.772;2023-03-04T05:09:27;61130.66;;;-144.06;57.78
11017;BME280;54687;50.800;6.772;2023-03-04T05:11:53;61118.06;;;-144.06;57.89
11017;BME280;54687;50.800;6.772;2023-03-04T05:14:20;61134.84;;;-144.06;57.42
11017;BME280;54687;50.800;6.772;2023-03-04T05:16:46;61153.69;;;-144.06;57.89
11017;BME280;54687;50.800;6.772;2023-03-04T05:19:14;61097.09;;;-144.06;57.95
11017;BME280;54687;50.800;6.772;2023-03-04T05:21:41;61168.38;;;-144.06;57.51
11017;BME280;54687;50.800;6.772;2023-03-04T05:24:07;61126.44;;;-144.06;57.99
11017;BME280;54687;50.800;6.772;2023-03-04T05:26:34;61122.25;;;-144.06;58.05
11017;BME280;54687;50.800;6.772;2023-03-04T05:29:01;61155.81;;;-144.06;58.15
11017;BME280;54687;50.800;6.772;2023-03-04T05:31:27;61130.66;;;-144.06;58.33
11017;BME280;54687;50.800;6.772;2023-03-04T05:33:54;61147.41;;;-144.06;58.02
11017;BME280;54687;50.800;6.772;2023-03-04T05:36:22;61139.03;;;-144.06;58.22
11017;BME280;54687;50.800;6.772;2023-03-04T05:38:49;61145.31;;;-144.06;58.50
11017;BME280;54687;50.800;6.772;2023-03-04T05:41:15;61105.50;;;-144.06;58.23
11017;BME280;54687;50.800;6.772;2023-03-04T05:43:44;61113.88;;;-144.06;58.08
11017;BME280;54687;50.800;6.772;2023-03-04T05:46:12;61124.34;;;-144.06;58.13
11017;BME280;54687;50.800;6.772;2023-03-04T05:48:39;61126.44;;;-144.06;58.10
11017;BME280;54687;50.800;6.772;2023-03-04T05:51:05;61101.28;;;-144.06;57.95
11017;BME280;54687;50.800;6.772;2023-03-04T05:53:34;61126.44;;;-144.06;57.73
11017;BME280;54687;50.800;6.772;2023-03-04T05:56:06;61160.00;;;-144.06;58.02
11017;BME280;54687;50.800;6.772;2023-03-04T05:58:32;61113.88;;;-144.06;58.00
11017;BME280;54687;50.800;6.772;2023-03-04T06:00:59;61122.25;;;-144.06;57.87
11017;BME280;54687;50.800;6.772;2023-03-04T06:03:26;61139.03;;;-144.06;57.81
11017;BME280;54687;50.800;6.772;2023-03-04T06:05:52;61099.19;;;-144.06;58.47
11017;BME280;54687;50.800;6.772;2023-03-04T06:08:19;61134.84;;;-144.06;58.08
11017;BME280;54687;50.800;6.772;2023-03-04T06:10:51;61160.00;;;-144.06;58.27
11017;BME280;54687;50.800;6.772;2023-03-04T06:13:18;61134.84;;;-144.06;57.81
11017;BME280;54687;50.800;6.772;2023-03-04T06:15:44;61168.38;;;-144.06;58.05
11017;BME280;54687;50.800;6.772;2023-03-04T06:18:11;61147.41;;;-144.06;57.91
11017;BME280;54687;50.800;6.772;2023-03-04T06:20:38;61122.25;;;-144.06;57.88
11017;BME280;54687;50.800;6.772;2023-03-04T06:23:05;61151.59;;;-144.06;57.82
11017;BME280;54687;50.800;6.772;2023-03-04T06:25:32;61180.97;;;-144.06;57.74
11017;BME280;54687;50.800;6.772;2023-03-04T06:28:00;61147.41;;;-144.06;57.78
11017;BME280;54687;50.800;6.772;2023-03-04T06:30:26;61164.19;;;-144.06;57.83
11017;BME280;54687;50.800;6.772;2023-03-04T06:32:53;61157.91;;;-144.06;57.58
11017;BME280;54687;50.800;6.772;2023-03-04T06:35:20;61168.38;;;-144.06;57.80
11017;BME280;54687;50.800;6.772;2023-03-04T06:37:46;61153.69;;;-144.06;58.00
11017;BME280;54687;50.800;6.772;2023-03-04T06:40:13;61097.09;;;-144.06;57.54
11017;BME280;54687;50.800;6.772;2023-03-04T06:42:40;61160.00;;;-144.06;57.61
11017;BME280;54687;50.800;6.772;2023-03-04T06:45:09;61147.41;;;-144.06;57.71
11017;BME280;54687;50.800;6.772;2023-03-04T06:47:35;61134.84;;;-144.06;57.61
11017;BME280;54687;50.800;6.772;2023-03-04T06:50:03;61130.66;;;-144.06;57.55
11017;BME280;54687;50.800;6.772;2023-03-04T06:52:30;61143.22;;;-144.06;57.66
11017;BME280;54687;50.800;6.772;2023-03-04T06:54:56;61147.41;;;-144.06;57.27
11017;BME280;54687;50.800;6.772;2023-03-04T06:57:23;61136.94;;;-144.06;57.29
11017;BME280;54687;50.800;6.772;2023-03-04T06:59:49;61136.94;;;-144.06;57.08
11017;BME280;54687;50.800;6.772;2023-03-04T07:02:17;61109.69;;;-144.06;57.18
11017;BME280;54687;50.800;6.772;2023-03-04T07:04:44;61126.44;;;-144.06;57.24
11017;BME280;54687;50.800;6.772;2023-03-04T07:07:11;61149.50;;;-144.06;56.80
11017;BME280;54687;50.800;6.772;2023-03-04T07:09:38;61134.84;;;-144.06;56.77
11017;BME280;54687;50.800;6.772;2023-03-04T07:12:05;61109.69;;;-144.06;56.87
11017;BME280;54687;50.800;6.772;2023-03-04T07:14:31;61143.22;;;-144.06;57.34
11017;BME280;54687;50.800;6.772;2023-03-04T07:16:59;61122.25;;;-144.06;57.27
11017;BME280;54687;50.800;6.772;2023-03-04T07:19:27;61126.44;;;-144.06;57.26
11017;BME280;54687;50.800;6.772;2023-03-04T07:21:54;61166.28;;;-144.06;57.13
11017;BME280;54687;50.800;6.772;2023-03-04T07:24:20;61160.00;;;-144.06;57.06
11017;BME280;54687;50.800;6.772;2023-03-04T07:26:47;61126.44;;;-144.06;57.14
11017;BME280;54687;50.800;6.772;2023-03-04T07:29:14;61115.97;;;-144.06;56.75
11017;BME280;54687;50.800;6.772;2023-03-04T07:31:40;61143.22;;;-144.06;56.77
11017;BME280;54687;50.800;6.772;2023-03-04T07:34:10;61122.25;;;-144.06;57.24
11017;BME280;54687;50.800;6.772;2023-03-04T07:36:39;61147.41;;;-144.06;57.17
11017;BME280;54687;50.800;6.772;2023-03-04T07:39:06;61141.13;;;-144.06;56.85
11017;BME280;54687;50.800;6.772;2023-03-04T07:41:33;61105.50;;;-144.06;57.29
11017;BME280;54687;50.800;6.772;2023-03-04T07:44:02;61151.59;;;-144.06;57.12
11017;BME280;54687;50.800;6.772;2023-03-04T07:46:29;61109.69;;;-144.06;57.09
11017;BME280;54687;50.800;6.772;2023-03-04T07:48:55;61111.78;;;-144.06;56.96
11017;BME280;54687;50.800;6.772;2023-03-04T07:51:23;61147.41;;;-144.06;56.53
11017;BME280;54687;50.800;6.772;2023-03-04T07:53:54;61111.78;;;-144.06;56.60
11017;BME280;54687;50.800;6.772;2023-03-04T07:56:24;61118.06;;;-144.06;56.69
11017;BME280;54687;50.800;6.772;2023-03-04T07:58:51;61088.72;;;-144.06;56.25
11017;BME280;54687;50.800;6.772;2023-03-04T08:01:21;61147.41;;;-144.06;56.35
11017;BME280;54687;50.800;6.772;2023-03-04T08:03:48;61155.81;;;-144.06;56.14
11017;BME280;54687;50.800;6.772;2023-03-04T08:06:16;61113.88;;;-144.06;56.62
11017;BME280;54687;50.800;6.772;2023-03-04T08:08:43;61141.13;;;-144.06;56.55
11017;BME280;54687;50.800;6.772;2023-03-04T08:11:13;61143.22;;;-144.06;56.36
11017;BME280;54687;50.800;6.772;2023-03-04T08:13:41;61113.88;;;-144.06;56.17
11017;BME280;54687;50.800;6.772;2023-03-04T08:16:09;61113.88;;;-144.06;56.02
11017;BME280;54687;50.800;6.772;2023-03-04T08:18:37;61101.28;;;-144.06;56.05
11017;BME280;54687;50.800;6.772;2023-03-04T08:21:07;61128.53;;;-144.06;56.33
11017;BME280;54687;50.800;6.772;2023-03-04T08:23:34;61151.59;;;-144.06;56.02
11017;BME280;54687;50.800;6.772;2023-03-04T08:26:05;61162.09;;;-144.06;55.92
11017;BME280;54687;50.800;6.772;2023-03-04T08:28:33;61151.59;;;-144.06;55.46
11017;BME280;54687;50.800;6.772;2023-03-04T08:31:00;61109.69;;;-144.06;55.68
11017;BME280;54687;50.800;6.772;2023-03-04T08:33:26;61143.22;;;-144.06;55.58
11017;BME280;54687;50.800;6.772;2023-03-04T08:35:53;61120.16;;;-144.06;55.25
11017;BME280;54687;50.800;6.772;2023-03-04T08:38:19;61153.69;;;-144.06;55.30
11017;BME280;54687;50.800;6.772;2023-03-04T08:40:51;61101.28;;;-144.06;55.18
11017;BME280;54687;50.800;6.772;2023-03-04T08:43:17;61126.44;;;-144.06;55.04
11017;BME280;54687;50.800;6.772;2023-03-04T08:45:45;61145.31;;;-144.06;54.57
11017;BME280;54687;50.800;6.772;2023-03-04T08:48:12;61103.38;;;-144.06;54.48
11017;BME280;54687;50.800;6.772;2023-03-04T08:50:39;61130.66;;;-144.06;54.14
11017;BME280;54687;50.800;6.772;2023-03-04T08:53:06;61105.50;;;-144.06;53.69
11017;BME280;54687;50.800;6.772;2023-03-04T08:55:33;61082.44;;;-144.06;53.79
11017;BME280;54687;50.800;6.772;2023-03-04T08:57:59;61147.41;;;-144.06;53.78
11017;BME280;54687;50.800;6.772;2023-03-04T09:00:26;61109.69;;;-144.06;53.58
11017;BME280;54687;50.800;6.772;2023-03-04T09:02:54;61109.69;;;-144.06;53.83
11017;BME280;54687;50.800;6.772;2023-03-04T09:05:21;61134.84;;;-144.06;53.70
11017;BME280;54687;50.800;6.772;2023-03-04T09:07:48;61086.63;;;-144.06;53.37
11017;BME280;54687;50.800;6.772;2023-03-04T09:10:14;61128.53;;;-144.06;53.11
11017;BME280;54687;50.800;6.772;2023-03-04T09:12:42;61139.03;;;-144.06;52.76
11017;BME280;54687;50.800;6.772;2023-03-04T09:15:09;61101.28;;;-144.06;52.39
11017;BME280;54687;50.800;6.772;2023-03-04T09:17:39;61109.69;;;-144.06;51.75
11017;BME280;54687;50.800;6.772;2023-03-04T09:20:09;61139.03;;;-144.06;51.28
11017;BME280;54687;50.800;6.772;2023-03-04T09:22:40;61113.88;;;-144.06;51.14
11017;BME280;54687;50.800;6.772;2023-03-04T09:25:08;61103.38;;;-144.06;51.22
11017;BME280;54687;50.800;6.772;2023-03-04T09:27:35;61107.59;;;-144.06;51.65
11017;BME280;54687;50.800;6.772;2023-03-04T09:30:02;61076.13;;;-144.06;51.60
11017;BME280;54687;50.800;6.772;2023-03-04T09:32:29;61130.66;;;-144.06;51.58
11017;BME280;54687;50.800;6.772;2023-03-04T09:34:55;61120.16;;;-144.06;52.24
11017;BME280;54687;50.800;6.772;2023-03-04T09:37:23;61105.50;;;-144.06;51.53
11017;BME280;54687;50.800;6.772;2023-03-04T09:39:50;61126.44;;;-144.06;51.34
11017;BME280;54687;50.800;6.772;2023-03-04T09:42:24;61126.44;;;-144.06;51.31
11017;BME280;54687;50.800;6.772;2023-03-04T09:44:52;61109.69;;;-144.06;50.98
11017;BME280;54687;50.800;6.772;2023-03-04T09:47:20;61076.13;;;-144.06;51.06
11017;BME280;54687;50.800;6.772;2023-03-04T09:49:53;61107.59;;;-144.06;50.91
11017;BME280;54687;50.800;6.772;2023-03-04T09:52:29;61105.50;;;-144.06;50.49
11017;BME280;54687;50.800;6.772;2023-03-04T09:55:07;61105.50;;;-144.06;50.26
11017;BME280;54687;50.800;6.772;2023-03-04T09:57:48;61082.44;;;-144.06;50.19
11017;BME280;54687;50.800;6.772;2023-03-04T10:00:20;61086.63;;;-144.06;50.05
11017;BME280;54687;50.800;6.772;2023-03-04T10:03:13;61124.34;;;-144.06;49.72
11017;BME280;54687;50.800;6.772;2023-03-04T10:05:45;61164.19;;;-144.06;49.86
11017;BME280;54687;50.800;6.772;2023-03-04T10:08:33;61126.44;;;-144.06;50.03
11017;BME280;54687;50.800;6.772;2023-03-04T10:11:05;61105.50;;;-144.06;49.91
11017;BME280;54687;50.800;6.772;2023-03-04T10:13:39;61128.53;;;-144.06;50.02
11017;BME280;54687;50.800;6.772;2023-03-04T10:16:11;61090.81;;;-144.06;49.47
11017;BME280;54687;50.800;6.772;2023-03-04T10:18:43;61080.34;;;-144.06;49.69
11017;BME280;54687;50.800;6.772;2023-03-04T10:21:18;61063.56;;;-144.06;49.87
11017;BME280;54687;50.800;6.772;2023-03-04T10:23:47;61092.91;;;-144.06;49.76
11017;BME280;54687;50.800;6.772;2023-03-04T10:26:16;61084.53;;;-144.06;49.67
11017;BME280;54687;50.800;6.772;2023-03-04T10:28:45;61111.78;;;-144.06;49.54
11017;BME280;54687;50.800;6.772;2023-03-04T10:31:18;61092.91;;;-144.06;49.64
11017;BME280;54687;50.800;6.772;2023-03-04T10:33:47;61109.69;;;-144.06;49.21
11017;BME280;54687;50.800;6.772;2023-03-04T10:36:26;61071.94;;;-144.06;49.20
11017;BME280;54687;50.800;6.772;2023-03-04T10:38:58;61084.53;;;-144.06;49.08
11017;BME280;54687;50.800;6.772;2023-03-04T10:41:28;61109.69;;;-144.06;48.90
11017;BME280;54687;50.800;6.772;2023-03-04T10:44:00;61084.53;;;-144.06;48.22
11017;BME280;54687;50.800;6.772;2023-03-04T10:46:28;61080.34;;;-144.06;48.17
11017;BME280;54687;50.800;6.772;2023-03-04T10:48:55;61057.28;;;-144.06;48.23
11017;BME280;54687;50.800;6.772;2023-03-04T10:51:23;61067.75;;;-144.06;47.95
11017;BME280;54687;50.800;6.772;2023-03-04T10:53:54;61076.13;;;-144.06;48.79
11017;BME280;54687;50.800;6.772;2023-03-04T10:56:32;61111.78;;;-144.06;48.68
11017;BME280;54687;50.800;6.772;2023-03-04T10:59:30;61134.84;;;-144.06;49.03
11017;BME280;54687;50.800;6.772;2023-03-04T11:01:58;61076.13;;;-144.06;48.37
11017;BME280;54687;50.800;6.772;2023-03-04T11:04:30;61057.28;;;-144.06;47.98
11017;BME280;54687;50.800;6.772;2023-03-04T11:06:57;61076.13;;;-144.06;47.40
11017;BME280;54687;50.800;6.772;2023-03-04T11:09:26;61053.09;;;-144.06;47.53
11017;BME280;54687;50.800;6.772;2023-03-04T11:11:58;61048.88;;;-144.06;48.03
11017;BME280;54687;50.800;6.772;2023-03-04T11:14:27;61092.91;;;-144.06;47.69
11017;BME280;54687;50.800;6.772;2023-03-04T11:16:56;61092.91;;;-144.06;47.71
11017;BME280;54687;50.800;6.772;2023-03-04T11:19:28;61097.09;;;-144.06;47.81
11017;BME280;54687;50.800;6.772;2023-03-04T11:21:56;61080.34;;;-144.06;47.11
11017;BME280;54687;50.800;6.772;2023-03-04T11:24:26;61059.38;;;-144.06;47.31
11017;BME280;54687;50.800;6.772;2023-03-04T11:27:00;61051.00;;;-144.06;47.02
11017;BME280;54687;50.800;6.772;2023-03-04T11:29:32;61051.00;;;-144.06;47.46
11017;BME280;54687;50.800;6.772;2023-03-04T11:32:06;61038.41;;;-144.06;46.99
11017;BME280;54687;50.800;6.772;2023-03-04T11:34:38;61113.88;;;-144.06;47.45
11017;BME280;54687;50.800;6.772;2023-03-04T11:37:12;61080.34;;;-144.06;47.09
11017;BME280;54687;50.800;6.772;2023-03-04T11:39:44;61078.25;;;-144.06;47.18
11017;BME280;54687;50.800;6.772;2023-03-04T11:42:20;61078.25;;;-144.06;46.76
11017;BME280;54687;50.800;6.772;2023-03-04T11:44:49;61080.34;;;-144.06;47.10
11017;BME280;54687;50.800;6.772;2023-03-04T11:47:27;61078.25;;;-144.06;46.87
11017;BME280;54687;50.800;6.772;2023-03-04T11:50:08;61065.66;;;-144.06;46.72
11017;BME280;54687;50.800;6.772;2023-03-04T11:52:53;61071.94;;;-144.06;46.75
11017;BME280;54687;50.800;6.772;2023-03-04T11:55:32;61080.34;;;-144.06;47.26
11017;BME280;54687;50.800;6.772;2023-03-04T11:58:22;61097.09;;;-144.06;47.58
11017;BME280;54687;50.800;6.772;2023-03-04T12:01:00;61080.34;;;-144.06;48.16
11017;BME280;54687;50.800;6.772;2023-03-04T12:03:54;61080.34;;;-144.06;48.10
11017;BME280;54687;50.800;6.772;2023-03-04T12:06:31;61055.19;;;-144.06;48.47
11017;BME280;54687;50.800;6.772;2023-03-04T12:09:10;61067.75;;;-144.06;48.76
11017;BME280;54687;50.800;6.772;2023-03-04T12:11:49;61139.03;;;-144.06;49.03
11017;BME280;54687;50.800;6.772;2023-03-04T12:14:26;61092.91;;;-144.06;48.93
11017;BME280;54687;50.800;6.772;2023-03-04T12:17:21;61067.75;;;-144.06;49.15
11017;BME280;54687;50.800;6.772;2023-03-04T12:20:05;61113.88;;;-144.06;49.37
11017;BME280;54687;50.800;6.772;2023-03-04T12:22:43;61128.53;;;-144.06;49.58
11017;BME280;54687;50.800;6.772;2023-03-04T12:25:30;61076.13;;;-144.06;49.76
11017;BME280;54687;50.800;6.772;2023-03-04T12:28:07;61074.03;;;-144.06;49.65
11017;BME280;54687;50.800;6.772;2023-03-04T12:30:53;61080.34;;;-144.06;49.50
11017;BME280;54687;50.800;6.772;2023-03-04T12:33:31;61084.53;;;-144.06;49.13
11017;BME280;54687;50.800;6.772;2023-03-04T12:36:12;61124.34;;;-144.06;49.45
11017;BME280;54687;50.800;6.772;2023-03-04T12:38:57;61090.81;;;-144.06;49.66
11017;BME280;54687;50.800;6.772;2023-03-04T12:41:32;61080.34;;;-144.06;49.27
11017;BME280;54687;50.800;6.772;2023-03-04T12:44:08;61076.13;;;-144.06;49.19
11017;BME280;54687;50.800;6.772;2023-03-04T12:46:43;61084.53;;;-144.06;48.46
11017;BME280;54687;50.800;6.772;2023-03-04T12:49:27;61042.59;;;-144.06;48.19
11017;BME280;54687;50.800;6.772;2023-03-04T12:52:02;61034.22;;;-144.06;47.59